Time;durP1;ratioP1;P1;durP2;ratioP2;P2;SDS_P1;SDS_P2;PMS_P1;PMS_P2;Temp;Humidity;BMP_temperature;BMP_pressure;BME280_temperature;BME280_humidity;BME280_pressure;Samples;Min_cycle;Max_cycle;Signal;HPM_P1;HPM_P2
2023/10/02 00:01:51;;;;;;;25.25;7.63;;;11.00;99.90;;;;;;5053137;28;20037;-65
2023/10/02 00:04:18;;;;;;;18.73;7.05;;;11.00;99.90;;;;;;5066599;28;20020;-66
2023/10/02 00:06:45;;;;;;;19.92;7.53;;;11.10;99.90;;;;;;5060490;28;20810;-65
2023/10/02 00:09:11;;;;;;;23.92;7.65;;;11.10;99.90;;;;;;5047504;28;20033;-66
2023/10/02 00:11:39;;;;;;;19.33;7.45;;;11.10;99.90;;;;;;5038079;28;20025;-66
2023/10/02 00:14:19;;;;;;;20.83;7.57;;;11.10;99.90;;;;;;5047238;28;20037;-66
2023/10/02 00:17:00;;;;;;;19.42;7.60;;;11.10;99.90;;;;;;5047863;28;20517;-66
2023/10/02 00:19:46;;;;;;;18.77;7.07;;;11.00;99.90;;;;;;5048301;28;20072;-65
2023/10/02 00:25:07;;;;;;;19.25;7.20;;;11.00;99.90;;;;;;5047217;28;20110;-66
2023/10/02 00:27:34;;;;;;;19.02;7.45;;;11.00;99.90;;;;;;5048003;28;20094;-66
2023/10/02 00:30:00;;;;;;;20.98;7.25;;;10.90;99.90;;;;;;5046985;28;20806;-65
2023/10/02 00:32:29;;;;;;;23.30;7.72;;;11.00;99.90;;;;;;5047635;28;20040;-66
2023/10/02 00:34:55;;;;;;;22.92;7.45;;;10.90;99.90;;;;;;5047868;28;20356;-67
2023/10/02 00:37:21;;;;;;;17.85;7.28;;;10.90;99.90;;;;;;5047293;28;20053;-65
2023/10/02 00:39:52;;;;;;;17.50;7.72;;;10.90;99.90;;;;;;5048310;28;20037;-67
2023/10/02 00:42:24;;;;;;;19.55;7.40;;;10.90;99.90;;;;;;5049333;28;20513;-65
2023/10/02 00:45:02;;;;;;;22.58;7.90;;;10.80;99.90;;;;;;5051823;28;20033;-67
2023/10/02 00:47:42;;;;;;;21.88;6.90;;;10.80;99.90;;;;;;5051545;28;20036;-65
2023/10/02 00:50:22;;;;;;;21.27;7.30;;;10.70;99.90;;;;;;5031033;28;20064;-66
2023/10/02 00:53:00;;;;;;;20.27;7.65;;;10.70;99.90;;;;;;5031916;28;20064;-65
2023/10/02 00:55:32;;;;;;;17.92;7.10;;;10.70;99.90;;;;;;5031754;28;20033;-66
2023/10/02 00:58:05;;;;;;;23.48;7.55;;;10.80;99.90;;;;;;5031267;28;20053;-67
2023/10/02 01:00:36;;;;;;;20.77;8.05;;;10.80;99.90;;;;;;5050819;28;20094;-66
2023/10/02 01:03:04;;;;;;;17.45;7.28;;;10.70;99.90;;;;;;5050668;28;20392;-66
2023/10/02 01:05:41;;;;;;;20.02;7.50;;;10.70;99.90;;;;;;5050047;28;20389;-67
2023/10/02 01:11:04;;;;;;;20.73;7.32;;;10.70;99.90;;;;;;5050135;28;20048;-67
2023/10/02 01:13:35;;;;;;;20.67;7.25;;;10.70;99.90;;;;;;5050969;28;20028;-67
2023/10/02 01:16:03;;;;;;;;;;;10.60;99.90;;;;;;5050349;28;20028;-67
2023/10/02 01:18:30;;;;;;;18.75;6.60;;;10.60;99.90;;;;;;5050279;28;19936;-66
2023/10/02 01:20:57;;;;;;;17.55;7.22;;;10.50;99.90;;;;;;5050542;28;20028;-67
2023/10/02 01:23:27;;;;;;;16.88;6.95;;;10.60;99.90;;;;;;5050807;28;20082;-67
2023/10/02 01:26:00;;;;;;;18.48;7.40;;;10.50;99.90;;;;;;5050170;28;20473;-66
2023/10/02 01:28:49;;;;;;;21.13;7.43;;;10.40;99.90;;;;;;5050609;28;20123;-67
2023/10/02 01:31:40;;;;;;;20.45;7.88;;;10.50;99.90;;;;;;5050396;28;20040;-67
2023/10/02 01:34:06;;;;;;;20.90;7.75;;;10.40;99.90;;;;;;5049939;28;20032;-67
2023/10/02 01:36:32;;;;;;;19.95;7.50;;;10.40;99.90;;;;;;5058564;28;20033;-67
2023/10/02 01:39:10;;;;;;;17.48;7.13;;;10.40;99.90;;;;;;5050661;28;20087;-67
2023/10/02 01:41:36;;;;;;;21.13;6.93;;;10.40;99.90;;;;;;5050818;28;20029;-67
2023/10/02 01:44:07;;;;;;;26.42;8.15;;;10.30;99.90;;;;;;5050202;28;20029;-67
2023/10/02 01:46:36;;;;;;;18.92;7.47;;;10.30;99.90;;;;;;5050789;28;20029;-66
2023/10/02 01:49:02;;;;;;;20.48;7.13;;;10.30;99.90;;;;;;5049841;28;20040;-67
2023/10/02 01:51:31;;;;;;;19.05;7.38;;;10.30;99.90;;;;;;5050305;28;20033;-66
2023/10/02 01:54:04;;;;;;;16.15;6.82;;;10.40;99.90;;;;;;5049953;28;20032;-66
2023/10/02 01:56:31;;;;;;;18.52;7.65;;;10.20;99.90;;;;;;5050492;28;20040;-67
2023/10/02 01:59:09;;;;;;;16.38;6.63;;;10.20;99.90;;;;;;5050420;28;20032;-66
2023/10/02 02:01:56;;;;;;;19.23;6.90;;;10.10;99.90;;;;;;5050474;28;20036;-66
2023/10/02 02:04:28;;;;;;;15.38;6.78;;;10.10;99.90;;;;;;5047685;28;20043;-66
2023/10/02 02:06:56;;;;;;;17.98;6.32;;;10.00;99.90;;;;;;5049966;28;20032;-66
2023/10/02 02:09:33;;;;;;;16.80;7.10;;;10.00;99.90;;;;;;5049367;28;20048;-66
2023/10/02 02:12:07;;;;;;;18.40;6.60;;;9.90;99.90;;;;;;5050348;28;20073;-66
2023/10/02 02:14:41;;;;;;;18.60;6.13;;;9.90;99.90;;;;;;5050231;28;20025;-67
2023/10/02 02:17:10;;;;;;;15.38;6.40;;;9.90;99.90;;;;;;5049296;28;20159;-66
2023/10/02 02:19:49;;;;;;;19.37;6.87;;;9.90;99.90;;;;;;5049855;28;20067;-66
2023/10/02 02:22:26;;;;;;;17.27;6.30;;;10.00;99.90;;;;;;5049043;28;20636;-66
2023/10/02 02:24:53;;;;;;;12.88;6.03;;;9.90;99.90;;;;;;5050046;28;20527;-66
2023/10/02 02:27:19;;;;;;;15.82;6.15;;;10.00;99.90;;;;;;5048859;28;20122;-66
2023/10/02 02:29:49;;;;;;;18.42;6.45;;;9.90;99.90;;;;;;5049907;28;20036;-66
2023/10/02 02:32:19;;;;;;;17.23;6.23;;;10.00;99.90;;;;;;5048727;28;20037;-66
2023/10/02 02:34:46;;;;;;;16.85;6.47;;;9.90;99.90;;;;;;5029928;28;20044;-66
2023/10/02 02:37:13;;;;;;;14.70;5.82;;;9.90;99.90;;;;;;5039974;28;20461;-67
2023/10/02 02:39:39;;;;;;;18.33;6.00;;;9.90;99.90;;;;;;5049639;28;20033;-66
2023/10/02 02:44:50;;;;;;;18.33;6.35;;;9.90;99.90;;;;;;5049661;28;20048;-67
2023/10/02 02:47:23;;;;;;;18.60;6.55;;;9.90;99.90;;;;;;5047932;28;20043;-66
2023/10/02 02:49:51;;;;;;;15.90;6.65;;;9.90;99.90;;;;;;5049554;28;20032;-66
2023/10/02 02:52:24;;;;;;;18.65;6.57;;;9.80;99.90;;;;;;5048715;28;20097;-66
2023/10/02 02:54:58;;;;;;;21.45;6.68;;;9.80;99.90;;;;;;5049332;28;20037;-66
2023/10/02 02:57:26;;;;;;;18.33;7.05;;;9.80;99.90;;;;;;5048480;28;20604;-66
2023/10/02 03:00:29;;;;;;;16.33;6.82;;;9.80;99.90;;;;;;5048886;28;20120;-67
2023/10/02 03:02:46;;;;;;;17.58;6.30;;;9.80;99.90;;;;;;5048936;28;20447;-66
2023/10/02 03:05:16;;;;;;;16.65;5.93;;;9.90;99.90;;;;;;5047244;28;20468;-66
2023/10/02 03:07:44;;;;;;;18.42;7.30;;;9.80;99.90;;;;;;5049208;28;20132;-66
2023/10/02 03:10:11;;;;;;;19.13;6.70;;;9.80;99.90;;;;;;5045313;28;20037;-66
2023/10/02 03:12:48;;;;;;;21.33;7.13;;;9.80;99.90;;;;;;5048899;28;20036;-67
2023/10/02 03:15:17;;;;;;;22.23;7.53;;;9.70;99.90;;;;;;5048017;28;20104;-66
2023/10/02 03:17:44;;;;;;;22.77;7.18;;;9.70;99.90;;;;;;5046431;28;20041;-66
2023/10/02 03:20:22;;;;;;;21.23;7.30;;;9.70;99.90;;;;;;5048281;28;20039;-67
2023/10/02 03:22:55;;;;;;;18.58;6.97;;;9.60;99.90;;;;;;5048690;28;20021;-67
2023/10/02 03:25:45;;;;;;;22.83;7.57;;;9.60;99.90;;;;;;5048012;28;20037;-66
2023/10/02 03:28:32;;;;;;;15.15;6.40;;;9.60;99.90;;;;;;5048059;28;20044;-66
2023/10/02 03:30:58;;;;;;;17.23;6.68;;;9.60;99.90;;;;;;5048780;28;20099;-66
2023/10/02 03:33:30;;;;;;;18.63;6.50;;;9.60;99.90;;;;;;5047788;28;20068;-66
2023/10/02 03:36:09;;;;;;;22.20;7.72;;;9.60;99.90;;;;;;5048316;28;20450;-66
2023/10/02 03:38:41;;;;;;;16.92;6.72;;;9.60;99.90;;;;;;5048716;28;20045;-66
2023/10/02 03:41:13;;;;;;;19.67;6.55;;;9.50;99.90;;;;;;5048039;28;20058;-67
2023/10/02 03:43:46;;;;;;;18.83;6.82;;;9.50;99.90;;;;;;5048681;28;20744;-65
2023/10/02 03:46:59;;;;;;;15.77;6.45;;;9.50;99.90;;;;;;5047568;28;20541;-66
2023/10/02 03:48:59;;;;;;;17.17;6.60;;;9.50;99.90;;;;;;5040731;28;20049;-66
2023/10/02 03:51:40;;;;;;;18.23;6.80;;;9.40;99.90;;;;;;5047214;28;20461;-66
2023/10/02 03:54:21;;;;;;;17.77;6.40;;;9.40;99.90;;;;;;5048359;28;20128;-67
2023/10/02 03:56:51;;;;;;;16.23;7.07;;;9.40;99.90;;;;;;5048560;28;20029;-66
2023/10/02 03:59:21;;;;;;;17.42;6.47;;;9.50;99.90;;;;;;5047842;28;20040;-66
2023/10/02 04:01:48;;;;;;;18.33;6.88;;;9.50;99.90;;;;;;5047782;28;20134;-66
2023/10/02 04:06:44;;;;;;;23.02;6.60;;;9.50;99.90;;;;;;5035155;28;20533;-67
2023/10/02 04:09:21;;;;;;;15.00;6.17;;;9.50;99.90;;;;;;5047901;28;20047;-68
2023/10/02 04:11:52;;;;;;;14.85;5.88;;;9.40;99.90;;;;;;5048308;28;20044;-66
2023/10/02 04:14:33;;;;;;;14.95;5.30;;;9.40;99.90;;;;;;5047347;28;20064;-66
2023/10/02 04:17:14;;;;;;;12.88;4.78;;;9.20;99.90;;;;;;5051504;28;20154;-65
2023/10/02 04:19:43;;;;;;;15.73;6.57;;;9.10;99.90;;;;;;5052531;28;20139;-66
2023/10/02 04:22:19;;;;;;;15.02;5.45;;;9.10;99.90;;;;;;5052021;28;20039;-67
2023/10/02 04:24:58;;;;;;;13.55;5.28;;;9.10;99.90;;;;;;5052237;28;20036;-66
2023/10/02 04:32:49;;;;;;;15.57;5.57;;;9.10;99.90;;;;;;5052099;28;20490;-66
2023/10/02 04:38:06;;;;;;;17.77;6.22;;;9.20;99.90;;;;;;5051317;28;20136;-66
2023/10/02 04:40:51;;;;;;;13.95;5.78;;;9.20;99.90;;;;;;5051107;28;20139;-66
2023/10/02 04:43:23;;;;;;;15.95;6.18;;;9.20;99.90;;;;;;5039881;28;20491;-66
2023/10/02 04:46:14;;;;;;;16.38;5.70;;;9.10;99.90;;;;;;5051516;28;20064;-65
2023/10/02 04:48:42;;;;;;;16.38;6.25;;;9.10;99.90;;;;;;5051970;28;20647;-66
2023/10/02 04:51:09;;;;;;;19.77;6.05;;;9.10;99.90;;;;;;5049952;28;20556;-66
2023/10/02 04:53:36;;;;;;;14.40;6.25;;;9.00;99.90;;;;;;5053443;28;20032;-66
2023/10/02 04:58:50;;;;;;;19.17;6.07;;;9.00;99.90;;;;;;5051329;28;20045;-66
2023/10/02 05:01:28;;;;;;;15.93;6.03;;;9.00;99.90;;;;;;5050379;28;20037;-66
2023/10/02 05:03:54;;;;;;;17.27;5.97;;;9.10;99.90;;;;;;5051004;28;20462;-66
2023/10/02 05:11:55;;;;;;;17.80;6.13;;;9.00;99.90;;;;;;5046754;28;20075;-66
2023/10/02 05:14:26;;;;;;;16.67;6.35;;;8.90;99.90;;;;;;5041068;28;20041;-66
2023/10/02 05:17:19;;;;;;;;;;;8.90;99.90;;;;;;5050351;28;20037;-67
2023/10/02 05:20:02;;;;;;;14.23;5.75;;;8.80;99.90;;;;;;5048372;28;20361;-66
2023/10/02 05:22:30;;;;;;;18.02;6.18;;;8.80;99.90;;;;;;5050444;28;20376;-66
2023/10/02 05:24:59;;;;;;;15.55;5.63;;;8.80;99.90;;;;;;5049000;28;20091;-67
2023/10/02 05:27:36;;;;;;;17.50;6.63;;;8.80;99.90;;;;;;5049203;28;20064;-66
2023/10/02 05:30:17;;;;;;;17.33;6.22;;;8.80;99.90;;;;;;5048823;28;20389;-66
2023/10/02 05:32:43;;;;;;;14.75;6.07;;;8.90;99.90;;;;;;5048286;28;20040;-66
2023/10/02 05:37:42;;;;;;;16.17;6.50;;;8.90;99.90;;;;;;5049556;28;20052;-66
2023/10/02 05:45:47;;;;;;;17.63;6.55;;;9.00;99.90;;;;;;5048912;28;20664;-67
2023/10/02 05:48:27;;;;;;;14.30;6.15;;;9.00;99.90;;;;;;5045356;28;20055;-67
2023/10/02 05:50:54;;;;;;;;;;;9.00;99.90;;;;;;5047370;28;20029;-66
2023/10/02 05:53:32;;;;;;;18.15;5.90;;;9.10;99.90;;;;;;5044093;28;19974;-67
2023/10/02 05:56:05;;;;;;;17.88;6.28;;;9.20;99.90;;;;;;5046755;28;20056;-67
2023/10/02 05:58:32;;;;;;;13.85;6.00;;;9.30;99.90;;;;;;5046607;28;20578;-68
2023/10/02 06:01:04;;;;;;;15.15;6.18;;;9.40;99.90;;;;;;5046212;28;20033;-66
2023/10/02 06:03:34;;;;;;;15.88;6.05;;;9.50;99.90;;;;;;5048449;28;20040;-67
2023/10/02 06:06:21;;;;;;;13.85;6.20;;;9.60;99.90;;;;;;5048017;28;20056;-67
2023/10/02 06:09:01;;;;;;;18.95;5.97;;;9.60;99.90;;;;;;5048301;28;20040;-66
2023/10/02 06:11:27;;;;;;;15.30;5.67;;;9.50;99.90;;;;;;5049235;28;20025;-66
2023/10/02 06:13:56;;;;;;;17.92;6.07;;;9.50;99.90;;;;;;5050126;28;20032;-66
2023/10/02 06:16:29;;;;;;;14.57;5.77;;;9.40;99.90;;;;;;5045574;28;20064;-67
2023/10/02 06:19:01;;;;;;;13.68;5.38;;;9.40;99.90;;;;;;5047738;28;20118;-66
2023/10/02 06:21:31;;;;;;;15.40;5.72;;;9.40;99.90;;;;;;5049199;28;20036;-67
2023/10/02 06:23:58;;;;;;;16.15;6.25;;;9.50;99.90;;;;;;5049819;28;20039;-67
2023/10/02 06:26:46;;;;;;;16.05;5.90;;;9.50;99.90;;;;;;5048651;28;20091;-67
2023/10/02 06:29:20;;;;;;;17.13;6.07;;;9.40;99.90;;;;;;5034185;28;20036;-67
2023/10/02 06:31:51;;;;;;;16.65;5.55;;;9.50;99.90;;;;;;5049173;28;20373;-67
2023/10/02 06:34:19;;;;;;;20.27;6.50;;;9.50;99.90;;;;;;5049160;28;20070;-67
2023/10/02 06:36:48;;;;;;;15.27;6.35;;;9.60;99.90;;;;;;5048228;28;20052;-67
2023/10/02 06:39:21;;;;;;;17.98;6.32;;;9.70;99.90;;;;;;5048682;28;20523;-67
2023/10/02 06:41:47;;;;;;;16.85;6.55;;;9.80;99.90;;;;;;5049771;28;20024;-67
2023/10/02 06:44:16;;;;;;;16.13;6.70;;;9.80;99.90;;;;;;5049614;28;20029;-67
2023/10/02 06:46:53;;;;;;;19.55;7.00;;;9.90;99.90;;;;;;5048317;28;20819;-67
2023/10/02 06:49:23;;;;;;;17.23;7.03;;;9.90;99.90;;;;;;5049001;28;20036;-68
2023/10/02 06:51:49;;;;;;;20.20;7.40;;;9.90;99.90;;;;;;5049643;28;20032;-68
2023/10/02 06:54:19;;;;;;;17.17;6.90;;;10.00;99.90;;;;;;5049037;28;20029;-66
2023/10/02 06:56:45;;;;;;;20.10;7.00;;;10.00;99.90;;;;;;5049108;28;20036;-67
2023/10/02 06:59:11;;;;;;;14.93;6.35;;;10.10;99.90;;;;;;5049280;28;20044;-67
2023/10/02 07:01:36;;;;;;;20.63;6.78;;;10.10;99.90;;;;;;5048384;28;20107;-67
2023/10/02 07:04:12;;;;;;;18.30;6.72;;;10.30;99.90;;;;;;5048880;28;20017;-67
2023/10/02 07:06:38;;;;;;;20.50;7.35;;;10.50;99.90;;;;;;5048235;28;20033;-67
2023/10/02 07:09:10;;;;;;;19.38;7.70;;;10.60;99.90;;;;;;5049002;28;20110;-67
2023/10/02 07:11:37;;;;;;;20.25;7.28;;;10.80;99.90;;;;;;5047873;28;20171;-67
2023/10/02 07:14:04;;;;;;;15.90;6.93;;;11.00;99.90;;;;;;5048762;28;20024;-67
2023/10/02 07:16:33;;;;;;;22.88;7.45;;;11.10;99.90;;;;;;5047784;28;20025;-67
2023/10/02 07:18:59;;;;;;;17.50;7.15;;;11.20;99.90;;;;;;5043718;28;20037;-67
2023/10/02 07:21:27;;;;;;;19.05;7.65;;;11.40;99.90;;;;;;5045701;28;20036;-67
2023/10/02 07:23:53;;;;;;;16.30;7.10;;;11.40;99.90;;;;;;5048668;28;20053;-67
2023/10/02 07:26:20;;;;;;;21.75;7.30;;;11.60;99.90;;;;;;5040723;28;20523;-68
2023/10/02 07:28:52;;;;;;;16.75;6.80;;;11.70;99.90;;;;;;5044524;28;20508;-68
2023/10/02 07:31:22;;;;;;;18.98;7.40;;;11.90;99.90;;;;;;5041810;28;20050;-67
2023/10/02 07:33:48;;;;;;;21.67;7.78;;;12.00;99.90;;;;;;5064708;28;20033;-68
2023/10/02 07:36:15;;;;;;;16.00;7.60;;;12.20;99.90;;;;;;5043475;28;20033;-67
2023/10/02 07:38:42;;;;;;;19.30;7.50;;;12.30;99.90;;;;;;5047739;28;20040;-67
2023/10/02 07:41:23;;;;;;;19.65;7.50;;;12.50;99.90;;;;;;5048503;28;20089;-66
2023/10/02 07:43:51;;;;;;;16.80;6.95;;;12.70;99.90;;;;;;5046992;28;20032;-67
2023/10/02 07:46:19;;;;;;;18.55;7.43;;;12.80;99.90;;;;;;5048366;28;20491;-68
2023/10/02 07:48:57;;;;;;;18.35;7.40;;;12.90;99.90;;;;;;5046280;28;20047;-67
2023/10/02 07:51:37;;;;;;;20.50;7.78;;;13.10;99.90;;;;;;5047618;28;20369;-67
2023/10/02 07:54:04;;;;;;;17.58;7.50;;;13.30;99.90;;;;;;5048142;28;20047;-67
2023/10/02 07:56:29;;;;;;;19.95;8.35;;;13.50;99.90;;;;;;5047582;28;20037;-67
2023/10/02 07:58:59;;;;;;;19.92;7.35;;;13.70;99.90;;;;;;5048162;28;20393;-67
2023/10/02 08:01:27;;;;;;;17.85;7.25;;;13.90;99.90;;;;;;5047550;28;20039;-67
2023/10/02 08:03:55;;;;;;;19.50;7.05;;;14.00;99.90;;;;;;5038113;28;20043;-67
2023/10/02 08:11:51;;;;;;;22.08;8.18;;;14.60;99.90;;;;;;5047456;28;20079;-67
2023/10/02 08:19:54;;;;;;;18.17;7.90;;;15.30;99.90;;;;;;5047248;28;20029;-67
2023/10/02 08:22:24;;;;;;;20.52;8.05;;;15.50;99.90;;;;;;5048029;28;20033;-67
2023/10/02 08:24:55;;;;;;;21.23;7.88;;;15.70;99.90;;;;;;5047422;28;20029;-67
2023/10/02 08:27:21;;;;;;;21.80;8.02;;;15.90;99.90;;;;;;5047968;28;20033;-67
2023/10/02 08:29:47;;;;;;;18.90;7.90;;;16.20;99.90;;;;;;5047223;28;20036;-67
2023/10/02 08:32:12;;;;;;;24.88;8.98;;;16.30;99.90;;;;;;5047623;28;20021;-67
2023/10/02 08:34:38;;;;;;;22.38;9.13;;;16.50;99.90;;;;;;5057665;28;20032;-67
2023/10/02 08:37:12;;;;;;;21.85;8.85;;;16.70;99.90;;;;;;5057388;28;20052;-68
2023/10/02 08:39:39;;;;;;;21.67;8.43;;;17.00;99.90;;;;;;5045793;28;20393;-68
2023/10/02 08:42:09;;;;;;;22.67;9.18;;;17.30;99.90;;;;;;5047816;28;20029;-67
2023/10/02 08:44:40;;;;;;;20.42;8.45;;;17.60;99.90;;;;;;5046847;28;20040;-68
2023/10/02 08:47:24;;;;;;;26.05;8.48;;;18.00;99.90;;;;;;5046422;28;20393;-67
2023/10/02 08:50:01;;;;;;;21.92;8.77;;;18.30;99.90;;;;;;5046987;28;20037;-68
2023/10/02 08:52:38;;;;;;;21.83;9.30;;;18.40;99.90;;;;;;5045863;28;20025;-67
2023/10/02 08:56:21;;;;;;;20.63;8.52;;;18.60;99.90;;;;;;5047705;28;20028;-67
2023/10/02 08:58:16;;;;;;;22.45;9.05;;;18.90;99.90;;;;;;5041148;28;20040;-68
2023/10/02 09:06:41;;;;;;;22.55;9.13;;;19.80;99.90;;;;;;5050468;28;20045;-68
2023/10/02 09:11:44;;;;;;;20.02;8.80;;;20.10;99.90;;;;;;5030666;28;20029;-68
2023/10/02 09:14:21;;;;;;;24.17;8.82;;;20.30;99.90;;;;;;5042772;28;20116;-68
2023/10/02 09:17:07;;;;;;;22.20;9.48;;;20.70;99.90;;;;;;5050548;28;20024;-68
2023/10/02 09:19:34;;;;;;;24.90;9.43;;;20.70;99.90;;;;;;5050406;28;20119;-68
2023/10/02 09:22:10;;;;;;;22.02;9.18;;;21.00;99.90;;;;;;5051127;28;20128;-68
2023/10/02 09:24:40;;;;;;;24.38;9.35;;;21.10;99.90;;;;;;5049356;28;20059;-68
2023/10/02 09:27:23;;;;;;;24.38;9.32;;;21.30;99.90;;;;;;5050948;28;20414;-68
2023/10/02 09:30:15;;;;;;;25.75;9.50;;;21.40;99.90;;;;;;5050123;28;20033;-67
2023/10/02 09:32:47;;;;;;;22.67;8.18;;;21.60;99.90;;;;;;5049794;28;20043;-68
2023/10/02 09:35:32;;;;;;;25.42;8.40;;;21.70;99.90;;;;;;5050466;28;20033;-67
2023/10/02 09:38:04;;;;;;;25.80;8.68;;;21.90;99.90;;;;;;5050622;28;20049;-68
2023/10/02 09:41:15;;;;;;;20.02;8.25;;;22.00;99.90;;;;;;5050098;28;20029;-69
2023/10/02 09:43:41;;;;;;;23.20;9.18;;;22.40;99.90;;;;;;5049284;28;20618;-69
2023/10/02 09:46:20;;;;;;;21.23;9.15;;;22.40;99.90;;;;;;5050302;28;20033;-69
2023/10/02 09:49:01;;;;;;;23.67;9.25;;;22.70;99.90;;;;;;5049688;28;20043;-70
2023/10/02 09:51:28;;;;;;;20.95;8.73;;;22.70;99.90;;;;;;5050379;28;20041;-70
2023/10/02 09:54:21;;;;;;;24.75;9.25;;;22.80;99.90;;;;;;5050159;28;20071;-69
2023/10/02 09:57:11;;;;;;;22.90;9.40;;;22.70;99.90;;;;;;5049450;28;20029;-70
2023/10/02 09:59:48;;;;;;;21.33;9.15;;;23.00;99.90;;;;;;5049746;28;20163;-70
2023/10/02 10:08:18;;;;;;;21.92;8.98;;;23.40;99.90;;;;;;5043819;28;20468;-69
2023/10/02 10:10:49;;;;;;;22.67;8.80;;;23.50;99.90;;;;;;5049440;28;20041;-69
2023/10/02 10:13:31;;;;;;;25.13;9.95;;;23.60;99.90;;;;;;5040085;28;20098;-69
2023/10/02 10:16:18;;;;;;;22.95;9.35;;;23.80;99.90;;;;;;5049801;28;20036;-69
2023/10/02 10:21:56;;;;;;;25.63;9.90;;;24.10;99.90;;;;;;5049615;28;20082;-69
2023/10/02 10:27:40;;;;;;;30.75;10.75;;;24.30;99.90;;;;;;5050139;28;20453;-70
2023/10/02 10:32:47;;;;;;;28.77;10.43;;;24.60;99.90;;;;;;5048903;28;20048;-69
2023/10/02 10:35:33;;;;;;;28.30;10.88;;;24.70;99.90;;;;;;5049591;28;20025;-70
2023/10/02 10:37:58;;;;;;;32.30;12.57;;;25.00;99.90;;;;;;5049015;28;20052;-69
2023/10/02 10:40:44;;;;;;;31.92;11.98;;;25.20;99.90;;;;;;5049614;28;20056;-69
2023/10/02 10:43:13;;;;;;;39.35;13.80;;;25.30;99.90;;;;;;5049593;28;20029;-69
2023/10/02 10:45:40;;;;;;;34.78;13.77;;;25.60;97.50;;;;;;5048792;28;20035;-69
2023/10/02 10:48:18;;;;;;;37.60;14.32;;;25.70;97.80;;;;;;5049477;28;20094;-69
2023/10/02 10:50:57;;;;;;;38.72;13.82;;;25.80;96.90;;;;;;5048708;28;20028;-69
2023/10/02 10:53:27;;;;;;;33.47;13.32;;;25.90;97.00;;;;;;5029765;28;20034;-69
2023/10/02 10:55:56;;;;;;;36.05;12.55;;;26.20;96.70;;;;;;5029018;28;20041;-69
2023/10/02 10:58:35;;;;;;;32.75;12.25;;;26.30;95.50;;;;;;5029541;28;20037;-69
2023/10/02 11:01:05;;;;;;;31.95;12.45;;;26.40;95.60;;;;;;5040634;28;20074;-69
2023/10/02 11:03:31;;;;;;;36.10;13.65;;;26.70;95.40;;;;;;5029380;28;20061;-69
2023/10/02 11:06:02;;;;;;;34.85;12.73;;;26.70;95.30;;;;;;5029582;28;20026;-70
2023/10/02 11:08:30;;;;;;;38.25;13.35;;;26.90;94.90;;;;;;5049194;28;20517;-70
2023/10/02 11:11:06;;;;;;;34.88;12.98;;;27.20;93.70;;;;;;5048260;28;20033;-69
2023/10/02 11:13:50;;;;;;;32.15;13.80;;;27.10;92.90;;;;;;5029170;28;20079;-69
2023/10/02 11:16:22;;;;;;;34.03;13.50;;;27.10;92.50;;;;;;5029258;28;20030;-69
2023/10/02 11:19:21;;;;;;;36.10;13.88;;;27.20;91.40;;;;;;5028145;28;20128;-67
2023/10/02 11:22:19;;;;;;;33.97;13.20;;;27.60;92.60;;;;;;5035479;28;20032;-70
2023/10/02 11:24:53;;;;;;;39.92;14.50;;;27.70;91.10;;;;;;5047609;28;20052;-67
2023/10/02 11:27:20;;;;;;;33.83;14.02;;;27.80;91.30;;;;;;5048787;28;20112;-69
2023/10/02 11:30:02;;;;;;;38.47;15.05;;;27.90;92.00;;;;;;5047448;28;20111;-69
2023/10/02 11:32:54;;;;;;;37.10;14.45;;;28.00;90.30;;;;;;5048404;28;20446;-69
2023/10/02 11:35:21;;;;;;;43.85;15.30;;;27.90;91.20;;;;;;5048727;28;20514;-69
2023/10/02 11:37:48;;;;;;;34.15;13.90;;;28.00;91.00;;;;;;5047255;28;20122;-69
2023/10/02 11:40:14;;;;;;;40.75;14.95;;;28.00;90.30;;;;;;5048729;28;20040;-69
2023/10/02 11:42:40;;;;;;;42.38;16.05;;;27.90;87.70;;;;;;5047917;28;20496;-69
2023/10/02 11:45:07;;;;;;;41.60;16.35;;;28.00;89.00;;;;;;5048666;28;20089;-69
2023/10/02 11:47:34;;;;;;;42.67;15.80;;;27.90;85.00;;;;;;5048095;28;20033;-69
2023/10/02 11:50:00;;;;;;;38.92;15.27;;;27.90;86.20;;;;;;5047751;28;20040;-70
2023/10/02 11:52:26;;;;;;;41.17;15.90;;;27.90;84.20;;;;;;5048472;28;20060;-69
2023/10/02 11:54:51;;;;;;;39.67;15.02;;;28.20;84.40;;;;;;5047663;28;20037;-70
2023/10/02 11:57:18;;;;;;;41.22;16.67;;;28.00;82.70;;;;;;5043145;28;20074;-69
2023/10/02 11:59:47;;;;;;;35.80;15.02;;;28.20;88.10;;;;;;5042781;28;20025;-69
2023/10/02 12:02:17;;;;;;;41.40;16.07;;;28.50;84.20;;;;;;5046784;28;20025;-70
2023/10/02 12:04:44;;;;;;;44.58;15.77;;;28.80;83.80;;;;;;5046326;28;20052;-70
2023/10/02 12:07:10;;;;;;;37.75;14.88;;;28.90;81.50;;;;;;5043929;28;20163;-68
2023/10/02 12:09:36;;;;;;;42.35;16.27;;;29.00;81.00;;;;;;5044592;28;20166;-70
2023/10/02 12:12:03;;;;;;;37.83;16.77;;;29.30;83.30;;;;;;5047079;28;20639;-69
2023/10/02 12:14:30;;;;;;;43.85;17.48;;;29.40;83.90;;;;;;5048330;28;20055;-69
2023/10/02 12:16:59;;;;;;;43.25;18.10;;;29.50;81.10;;;;;;5045584;28;20021;-69
2023/10/02 12:19:36;;;;;;;48.00;18.77;;;29.50;80.70;;;;;;5044953;28;20037;-69
2023/10/02 12:22:05;;;;;;;43.97;17.15;;;29.40;81.60;;;;;;5043706;28;20056;-69
2023/10/02 12:24:32;;;;;;;50.97;17.15;;;29.40;79.40;;;;;;5042111;28;20032;-70
2023/10/02 12:26:58;;;;;;;43.85;17.52;;;29.20;79.50;;;;;;5035498;28;20036;-66
2023/10/02 12:29:24;;;;;;;40.55;16.85;;;29.40;75.90;;;;;;5040103;28;20021;-69
2023/10/02 12:31:51;;;;;;;44.72;16.63;;;29.50;80.80;;;;;;5036444;28;20541;-70
2023/10/02 12:34:17;;;;;;;43.10;17.05;;;29.70;82.10;;;;;;5040916;28;20048;-70
2023/10/02 12:36:44;;;;;;;40.80;16.45;;;29.70;80.00;;;;;;5042769;28;20049;-70
2023/10/02 12:39:12;;;;;;;38.85;15.45;;;29.50;75.90;;;;;;5043391;28;20069;-70
2023/10/02 12:41:42;;;;;;;40.60;16.70;;;29.50;79.80;;;;;;5050016;28;20450;-70
2023/10/02 12:44:08;;;;;;;47.57;18.13;;;29.70;78.20;;;;;;5053423;28;20021;-70
2023/10/02 12:46:43;;;;;;;39.65;17.33;;;29.20;76.30;;;;;;5058831;28;20029;-70
2023/10/02 12:49:10;;;;;;;42.90;18.00;;;29.20;76.80;;;;;;5051702;28;20028;-70
2023/10/02 12:51:38;;;;;;;47.22;17.95;;;29.30;76.80;;;;;;5053568;28;20032;-70
2023/10/02 12:54:04;;;;;;;47.58;18.17;;;29.60;79.00;;;;;;5050766;28;20025;-70
2023/10/02 12:56:30;;;;;;;45.88;17.83;;;29.60;78.20;;;;;;5058448;28;20480;-70
2023/10/02 12:58:55;;;;;;;41.70;18.13;;;29.50;79.00;;;;;;5047711;28;20044;-70
2023/10/02 13:01:24;;;;;;;47.22;19.15;;;29.60;78.60;;;;;;5049802;28;20435;-70
2023/10/02 13:03:59;;;;;;;44.72;18.73;;;29.50;77.80;;;;;;5047246;28;20033;-70
2023/10/02 13:06:26;;;;;;;48.05;18.73;;;29.70;74.50;;;;;;5050306;28;20675;-70
2023/10/02 13:08:56;;;;;;;42.60;17.92;;;29.50;75.30;;;;;;5061808;28;20123;-69
2023/10/02 13:11:24;;;;;;;42.83;18.35;;;29.60;77.20;;;;;;5052353;28;20037;-69
2023/10/02 13:13:52;;;;;;;53.28;18.27;;;29.70;75.20;;;;;;5045119;28;20124;-69
2023/10/02 13:16:19;;;;;;;48.53;18.90;;;30.00;79.90;;;;;;5050365;28;20029;-69
2023/10/02 13:18:46;;;;;;;48.05;18.80;;;30.20;75.30;;;;;;5048242;28;20552;-70
2023/10/02 13:21:14;;;;;;;48.55;18.30;;;30.20;76.10;;;;;;5050042;28;20104;-69
2023/10/02 13:23:40;;;;;;;48.75;19.90;;;30.00;74.90;;;;;;5049767;28;20488;-69
2023/10/02 13:26:08;;;;;;;46.97;18.90;;;29.60;76.40;;;;;;5048547;28;20032;-69
2023/10/02 13:28:34;;;;;;;48.55;19.65;;;29.70;74.80;;;;;;5045095;28;20385;-69
2023/10/02 13:31:11;;;;;;;47.85;18.38;;;29.70;78.70;;;;;;5054034;28;20024;-69
2023/10/02 13:33:36;;;;;;;50.08;19.70;;;30.00;76.80;;;;;;5052032;28;20028;-69
2023/10/02 13:36:03;;;;;;;48.50;19.40;;;30.00;76.80;;;;;;5050976;28;20720;-69
2023/10/02 13:38:29;;;;;;;48.33;19.00;;;29.80;73.30;;;;;;5056713;28;20064;-68
2023/10/02 13:41:06;;;;;;;48.50;18.40;;;29.50;74.40;;;;;;5058791;28;20028;-69
2023/10/02 13:43:32;;;;;;;45.58;18.55;;;29.70;77.80;;;;;;5061019;28;20033;-69
2023/10/02 13:45:59;;;;;;;46.28;18.90;;;29.80;77.50;;;;;;5055096;28;20035;-69
2023/10/02 13:48:24;;;;;;;46.80;18.52;;;29.80;77.50;;;;;;5067282;28;20127;-69
2023/10/02 13:50:50;;;;;;;47.00;19.63;;;30.00;74.10;;;;;;5054110;28;20654;-69
2023/10/02 13:53:16;;;;;;;51.10;19.27;;;30.10;76.20;;;;;;5056739;28;20044;-69
2023/10/02 13:55:41;;;;;;;52.40;19.20;;;30.20;73.80;;;;;;5064315;28;20498;-69
2023/10/02 13:58:07;;;;;;;49.22;19.65;;;30.20;75.20;;;;;;5053280;28;20032;-69
2023/10/02 14:00:38;;;;;;;57.20;19.60;;;30.00;74.70;;;;;;5048871;28;20469;-69
2023/10/02 14:03:07;;;;;;;52.45;19.88;;;30.10;75.10;;;;;;5047289;28;20059;-69
2023/10/02 14:05:35;;;;;;;46.70;18.77;;;29.80;73.70;;;;;;5048599;28;20035;-69
2023/10/02 14:08:01;;;;;;;51.13;19.38;;;29.60;75.10;;;;;;5048285;28;20176;-69
2023/10/02 14:10:29;;;;;;;50.83;19.52;;;29.30;76.10;;;;;;5049156;28;20456;-69
2023/10/02 14:12:55;;;;;;;52.63;20.17;;;29.50;75.90;;;;;;5055115;28;20033;-69